createdAt,value
2019-03-15T00:02:34.260Z,8.83
2019-03-15T00:07:36.442Z,11.97
2019-03-15T00:12:38.612Z,15.03
2019-03-15T00:17:40.706Z,6.95
2019-03-15T00:22:42.908Z,11.65
2019-03-15T00:27:45.054Z,9.05
2019-03-15T00:32:47.140Z,10.30
2019-03-15T00:37:49.323Z,18.10
2019-03-15T00:42:51.420Z,6.37
2019-03-15T00:47:53.501Z,9.90
2019-03-15T00:52:55.507Z,10.63
2019-03-15T00:57:57.604Z,10.93
2019-03-15T01:02:59.754Z,10.23
2019-03-15T01:08:01.805Z,16.23
2019-03-15T01:13:03.873Z,9.90
2019-03-15T01:18:06.296Z,9.50
2019-03-15T01:23:08.492Z,12.33
2019-03-15T01:28:10.539Z,9.28
2019-03-15T01:33:12.585Z,13.62
2019-03-15T01:38:14.769Z,13.28
2019-03-15T01:43:16.951Z,9.43
2019-03-15T01:48:18.988Z,9.65
2019-03-15T01:53:21.197Z,9.25
2019-03-15T01:58:23.287Z,10.13
2019-03-15T02:03:26.005Z,17.50
2019-03-15T02:08:28.067Z,12.18
2019-03-15T02:13:30.178Z,9.50
2019-03-15T02:18:32.324Z,9.85
2019-03-15T02:23:34.447Z,12.85
2019-03-15T02:28:36.857Z,7.03
2019-03-15T02:33:38.938Z,7.90
2019-03-15T02:38:41.099Z,11.43
2019-03-15T02:43:43.188Z,11.25
2019-03-15T02:48:45.313Z,12.43
2019-03-15T02:53:47.495Z,7.05
2019-03-15T02:58:49.714Z,8.05
2019-03-15T03:03:51.758Z,7.50
2019-03-15T03:08:53.823Z,10.28
2019-03-15T03:13:55.936Z,14.83
2019-03-15T03:18:58.010Z,11.03
2019-03-15T03:24:00.091Z,13.30
2019-03-15T03:29:02.201Z,14.93
2019-03-15T03:34:04.318Z,9.30
2019-03-15T03:39:06.777Z,12.47
2019-03-15T03:44:08.870Z,12.30
2019-03-15T03:49:11.278Z,9.65
2019-03-15T03:54:13.471Z,13.70
2019-03-15T03:59:15.560Z,14.93
2019-03-15T04:04:17.979Z,10.78
2019-03-15T04:09:20.055Z,13.62
2019-03-15T04:14:22.134Z,10.35
2019-03-15T04:19:24.767Z,12.15
2019-03-15T04:24:27.009Z,14.65
2019-03-15T04:29:29.129Z,12.40
2019-03-15T04:34:31.166Z,9.70
2019-03-15T04:39:33.576Z,8.65
2019-03-15T04:44:35.945Z,12.55
2019-03-15T04:49:37.998Z,13.83
2019-03-15T04:54:40.022Z,14.03
2019-03-15T04:59:42.124Z,13.62
2019-03-15T05:04:44.185Z,8.88
2019-03-15T05:09:46.658Z,6.60
2019-03-15T05:14:48.798Z,18.90
2019-03-15T05:19:50.924Z,11.00
2019-03-15T05:24:53.124Z,10.63
2019-03-15T05:29:55.296Z,10.32
2019-03-15T05:34:57.451Z,10.40
2019-03-15T05:39:59.575Z,11.28
2019-03-15T05:45:02.108Z,7.87
2019-03-15T05:50:05.543Z,10.40
2019-03-15T05:55:12.078Z,11.85
2019-03-15T06:00:14.345Z,10.43
2019-03-15T06:05:16.383Z,16.77
2019-03-15T06:10:18.526Z,13.13
2019-03-15T06:15:20.644Z,16.15
2019-03-15T06:20:22.939Z,12.45
2019-03-15T06:25:25.268Z,14.68
2019-03-15T06:30:27.409Z,17.15
2019-03-15T06:35:29.516Z,15.23
2019-03-15T06:40:32.373Z,15.25
2019-03-15T06:45:34.935Z,20.95
2019-03-15T06:50:37.027Z,18.98
2019-03-15T06:55:39.064Z,19.60
2019-03-15T07:00:41.482Z,15.75
2019-03-15T07:05:43.600Z,17.80
2019-03-15T07:10:45.605Z,17.73
2019-03-15T07:15:47.654Z,16.30
2019-03-15T07:20:49.777Z,18.32
2019-03-15T07:25:52.094Z,16.25
2019-03-15T07:30:54.288Z,13.62
2019-03-15T07:35:56.638Z,20.45
2019-03-15T07:40:58.799Z,11.70
2019-03-15T07:46:00.958Z,16.40
2019-03-15T07:51:03.261Z,24.92
2019-03-15T07:56:05.334Z,18.48
2019-03-15T08:01:07.433Z,23.55
2019-03-15T08:06:09.465Z,24.32
2019-03-15T08:11:11.639Z,19.15
2019-03-15T08:16:13.708Z,20.48
2019-03-15T08:21:15.745Z,28.87
2019-03-15T08:26:17.929Z,23.55
2019-03-15T08:31:23.111Z,23.95
2019-03-15T08:36:23.950Z,28.75
2019-03-15T08:41:26.006Z,25.30
2019-03-15T08:46:28.068Z,21.17
2019-03-15T08:51:30.203Z,21.70
2019-03-15T08:56:32.345Z,24.92
2019-03-15T09:01:34.404Z,19.95
2019-03-15T09:06:36.513Z,19.15
2019-03-15T09:11:38.620Z,23.52
2019-03-15T09:16:40.654Z,19.45
2019-03-15T09:21:42.829Z,22.13
2019-03-15T09:26:44.964Z,18.80
2019-03-15T09:31:48.434Z,20.77
2019-03-15T09:36:51.328Z,21.55
2019-03-15T09:41:53.924Z,19.27
2019-03-15T09:46:55.901Z,23.27
2019-03-15T09:51:58.101Z,16.57
2019-03-15T09:57:00.110Z,19.57
2019-03-15T10:02:02.715Z,21.93
2019-03-15T10:07:05.127Z,23.10
2019-03-15T10:12:07.217Z,19.87
2019-03-15T10:17:09.296Z,21.73
2019-03-15T10:22:11.342Z,19.77
2019-03-15T10:27:13.750Z,14.28
2019-03-15T10:32:16.056Z,16.27
2019-03-15T10:37:18.109Z,16.10
2019-03-15T10:42:20.193Z,16.02
2019-03-15T10:47:22.259Z,17.42
2019-03-15T10:52:24.346Z,16.52
2019-03-15T10:57:26.358Z,18.12
2019-03-15T11:02:28.384Z,14.60
2019-03-15T11:07:30.460Z,12.30
2019-03-15T11:12:32.494Z,13.93
2019-03-15T11:17:34.583Z,11.00
2019-03-15T11:22:36.658Z,9.48
2019-03-15T11:27:38.745Z,11.03
2019-03-15T11:32:40.782Z,7.15
2019-03-15T11:37:43.009Z,9.63
2019-03-15T11:42:45.508Z,6.83
2019-03-15T11:48:02.933Z,7.08
2019-03-15T11:52:51.617Z,7.65
2019-03-15T11:57:53.664Z,3.92
2019-03-15T12:02:55.790Z,10.45
2019-03-15T12:07:57.871Z,6.75
2019-03-15T12:12:59.987Z,8.00
2019-03-15T12:18:02.103Z,5.55
2019-03-15T12:23:04.195Z,5.67
2019-03-15T12:28:06.697Z,3.60
2019-03-15T12:33:08.795Z,3.90
2019-03-15T12:38:11.186Z,2.30
2019-03-15T12:43:13.322Z,2.67
2019-03-15T12:48:15.433Z,1.40
2019-03-15T12:53:17.505Z,1.98
2019-03-15T12:58:19.960Z,2.15
2019-03-15T13:03:22.043Z,1.98
2019-03-15T13:08:24.092Z,1.52
2019-03-15T13:13:26.152Z,1.40
2019-03-15T13:18:28.233Z,1.15
2019-03-15T13:23:30.340Z,1.37
2019-03-15T13:28:32.537Z,2.80
2019-03-15T13:33:34.613Z,1.30
2019-03-15T13:38:36.800Z,1.52
2019-03-15T13:43:38.831Z,1.30
2019-03-15T13:48:40.935Z,1.77
2019-03-15T13:53:43.009Z,0.90
2019-03-15T13:58:56.735Z,1.15
2019-03-15T14:03:49.353Z,1.65
2019-03-15T14:08:51.537Z,0.90
2019-03-15T14:13:53.597Z,0.90
2019-03-15T14:18:55.720Z,1.32
2019-03-15T14:23:58.112Z,1.22
2019-03-15T14:29:00.248Z,1.12
2019-03-15T14:34:02.280Z,2.92
2019-03-15T14:39:05.536Z,1.57
2019-03-15T14:44:07.698Z,1.12
2019-03-15T14:49:09.737Z,5.03
2019-03-15T14:54:11.795Z,2.98
2019-03-15T14:59:13.973Z,1.05
2019-03-15T15:04:16.348Z,1.35
2019-03-15T15:09:18.636Z,2.33
2019-03-15T15:14:20.905Z,1.30
2019-03-15T15:19:23.025Z,0.80
2019-03-15T15:24:25.050Z,1.07
2019-03-15T15:29:27.140Z,0.90
2019-03-15T15:34:29.173Z,0.98
2019-03-15T15:39:31.327Z,1.00
2019-03-15T15:44:33.422Z,1.67
2019-03-15T15:49:35.496Z,1.12
2019-03-15T15:54:37.639Z,4.55
2019-03-15T15:59:39.687Z,1.10
2019-03-15T16:04:42.040Z,1.07
2019-03-15T16:09:44.125Z,1.30
2019-03-15T16:14:46.150Z,1.82
2019-03-15T16:19:48.202Z,1.17
2019-03-15T16:24:50.274Z,0.95
2019-03-15T16:29:52.456Z,2.10
2019-03-15T16:34:54.540Z,1.40
2019-03-15T16:39:56.639Z,0.98
2019-03-15T16:44:58.776Z,1.20
2019-03-15T16:50:00.834Z,1.35
2019-03-15T16:55:03.317Z,2.37
2019-03-15T17:00:06.366Z,1.50
2019-03-15T17:05:09.064Z,1.20
2019-03-15T17:10:11.254Z,1.15
2019-03-15T17:15:13.370Z,1.17
2019-03-15T17:20:15.628Z,1.98
2019-03-15T17:25:17.689Z,1.90
2019-03-15T17:30:19.848Z,2.27
2019-03-15T17:35:21.934Z,1.52
2019-03-15T17:40:24.315Z,1.32
2019-03-15T17:45:27.301Z,1.40
2019-03-15T17:50:29.507Z,1.10
2019-03-15T17:55:31.516Z,1.27
2019-03-15T18:00:39.693Z,1.52
2019-03-15T18:05:41.907Z,1.80
2019-03-15T18:10:44.040Z,2.08
2019-03-15T18:15:46.151Z,2.55
2019-03-15T18:20:48.202Z,1.85
2019-03-15T18:25:50.617Z,3.85
2019-03-15T18:30:53.102Z,1.35
2019-03-15T18:35:55.148Z,2.15
2019-03-15T18:40:57.232Z,1.42
2019-03-15T18:45:59.290Z,1.20
2019-03-15T18:51:01.404Z,2.52
2019-03-15T18:56:03.497Z,3.87
2019-03-15T19:01:05.585Z,2.12
2019-03-15T19:06:11.069Z,1.67
2019-03-15T19:11:14.855Z,2.83
2019-03-15T19:16:20.423Z,1.72
2019-03-15T19:21:24.368Z,2.02
2019-03-15T19:26:31.459Z,1.45
2019-03-15T19:31:35.237Z,1.27
2019-03-15T19:36:39.580Z,2.50
2019-03-15T19:41:41.826Z,1.07
2019-03-15T19:46:44.375Z,1.57
2019-03-15T19:51:46.676Z,1.60
2019-03-15T19:56:48.802Z,2.10
2019-03-15T20:01:51.104Z,1.57
2019-03-15T20:06:53.501Z,1.52
2019-03-15T20:11:55.604Z,1.47
2019-03-15T20:16:57.654Z,1.22
2019-03-15T20:21:59.812Z,1.37
2019-03-15T20:27:01.935Z,1.15
2019-03-15T20:32:04.632Z,1.37
2019-03-15T20:37:06.760Z,1.50
2019-03-15T20:42:09.182Z,1.67
2019-03-15T20:47:11.343Z,1.25
2019-03-15T20:52:13.535Z,1.15
2019-03-15T20:57:15.637Z,3.62
2019-03-15T21:02:17.971Z,2.40
2019-03-15T21:07:20.331Z,2.77
2019-03-15T21:12:22.475Z,1.30
2019-03-15T21:17:24.803Z,1.62
2019-03-15T21:22:26.998Z,1.30
2019-03-15T21:27:31.560Z,2.75
2019-03-15T21:32:40.429Z,1.22
2019-03-15T21:37:46.419Z,0.98
2019-03-15T21:42:48.638Z,1.00
2019-03-15T21:47:51.109Z,1.00
2019-03-15T21:52:53.257Z,1.30
2019-03-15T21:57:55.304Z,1.45
2019-03-15T22:02:57.396Z,1.70
2019-03-15T22:07:59.861Z,2.22
2019-03-15T22:13:02.086Z,0.90
2019-03-15T22:18:04.336Z,1.02
2019-03-15T22:23:06.750Z,1.22
2019-03-15T22:28:09.080Z,1.22
2019-03-15T22:33:11.508Z,0.90
2019-03-15T22:38:25.654Z,1.15
2019-03-15T22:43:17.975Z,0.80
2019-03-15T22:48:20.131Z,1.00
2019-03-15T22:53:23.650Z,1.67
2019-03-15T22:58:26.565Z,1.05
2019-03-15T23:03:29.051Z,1.75
2019-03-15T23:08:31.121Z,1.72
2019-03-15T23:13:33.259Z,1.87
2019-03-15T23:18:35.477Z,1.00
2019-03-15T23:23:37.555Z,2.17
2019-03-15T23:28:42.378Z,0.90
2019-03-15T23:33:44.447Z,1.00
2019-03-15T23:38:46.945Z,1.32
2019-03-15T23:43:49.011Z,1.17
2019-03-15T23:48:51.193Z,2.02
2019-03-15T23:53:53.832Z,1.50
2019-03-15T23:58:55.911Z,1.40
